CheckWX is a tool to help pilots better visualize weather data.  It is not intended as a substitute for an official pre-flight weather briefing.

06:45:43 UTC

MMRX TAF
General Lucio Blanco International Airport
Reynosa, Mexico
TAF MMRX 160517Z 1606/1706 13010KT P6SM SCT020 TEMPO 1610/1614 BKN020 FM161500 13015G25KT P6SM SCT020 FM170200 12005KT P6SM SCT020

Jun-16@
06:00 UTC

Jun-16 @ 06:00 UTC

Jun-16@
15:00 UTC

Jun-16 @ 15:00 UTC

TAF MMRX 160517Z 1606/1706 13010KT P6SM SCT020
Wind
  • 130° at 10 KTS
Cloud Levels
  • Scattered at 2,000' AGL

Jun-16@
10:00 UTC

Jun-16 @ 10:00 UTC

Jun-16@
14:00 UTC

Jun-16 @ 14:00 UTC

TEMPO 1610/1614 BKN020

Temporary

Temporary Changes expected for less than half the time period

Cloud Levels
  • Broken at 2,000' AGL

Jun-16@
15:00 UTC

Jun-16 @ 15:00 UTC

Jun-17@
02:00 UTC

Jun-17 @ 02:00 UTC

FM161500 13015G25KT P6SM SCT020

From

From Standard forecast or significant change

Wind
  • 130° at 15 KTS
  • {Gusting to 25 KTS
Cloud Levels
  • Scattered at 2,000' AGL

Jun-17@
02:00 UTC

Jun-17 @ 02:00 UTC

Jun-17@
06:00 UTC

Jun-17 @ 06:00 UTC

FM170200 12005KT P6SM SCT020

From

From Standard forecast or significant change

Wind
  • 120° at 5 KTS
Cloud Levels
  • Scattered at 2,000' AGL